This is the latest recevied weather packets stored in our database for station/object DO7ZT-13. If no packets are shown the sender has not sent any weather packets the latest 10 day(s).
| Time | Temp. | Humidity | Pressure | Rain* | Wind** | Luminosity | Snow |
|---|---|---|---|---|---|---|---|
| 1777829420 | 21.11° C | 34% | 1011.8 hPa | 0 mm | 0.89 m/s, 126° | - | - |
| 1777829107 | 21.11° C | 35% | 1011.8 hPa | 0 mm | 0.89 m/s, 120° | - | - |
| 1777828820 | 22.22° C | 33% | 1011.8 hPa | 0 mm | 0.89 m/s, 126° | - | - |
| 1777828507 | 22.22° C | 32% | 1011.9 hPa | 0 mm | 0.89 m/s, 134° | - | - |
| 1777828219 | 22.22° C | 32% | 1011.9 hPa | 0 mm | 0.45 m/s, 135° | - | - |
| 1777827907 | 22.78° C | 29% | 1011.9 hPa | 0 mm | 1.34 m/s, 150° | - | - |
| 1777827619 | 22.78° C | 29% | 1012 hPa | 0 mm | 1.34 m/s, 134° | - | - |
| 1777827307 | 22.78° C | 28% | 1012 hPa | 0 mm | 0.89 m/s, 145° | - | - |
| 1777827020 | 23.89° C | 27% | 1012 hPa | 0 mm | 0.89 m/s, 145° | - | - |
| 1777826707 | 23.89° C | 26% | 1011.9 hPa | 0 mm | 0.89 m/s, 150° | - | - |
| 1777826419 | 23.89° C | 25% | 1011.9 hPa | 0 mm | 1.34 m/s, 150° | - | - |
| 1777826107 | 23.89° C | 26% | 1011.9 hPa | 0 mm | 1.79 m/s, 140° | - | - |
| 1777825819 | 25° C | 27% | 1011.9 hPa | 0 mm | 0.89 m/s, 154° | - | - |
| 1777825507 | 25° C | 25% | 1011.9 hPa | 0 mm | 1.79 m/s, 135° | - | - |
| 1777825220 | 25° C | 25% | 1011.9 hPa | 0 mm | 1.79 m/s, 153° | - | - |
| 1777824907 | 25° C | 27% | 1012 hPa | 0 mm | 0.45 m/s, 141° | - | - |
| 1777824619 | 25° C | 26% | 1012 hPa | 0 mm | 1.34 m/s, 169° | - | - |
| 1777824307 | 25° C | 25% | 1012 hPa | 0 mm | 1.79 m/s, 146° | - | - |
| 1777824019 | 25° C | 26% | 1012 hPa | 0 mm | 1.79 m/s, 141° | - | - |
| 1777823707 | 25° C | 26% | 1012 hPa | 0 mm | 0.89 m/s, 182° | - | - |
| 1777823420 | 25° C | 25% | 1012 hPa | 0 mm | 2.24 m/s, 168° | - | - |
| 1777823107 | 25° C | 28% | 1012.3 hPa | 0 mm | 0.89 m/s, 196° | - | - |
| 1777822819 | 25° C | 27% | 1012.3 hPa | 0 mm | 0.45 m/s, 203° | - | - |
| 1777822507 | 25° C | 26% | 1012.3 hPa | 0 mm | 1.34 m/s, 184° | - | - |
| 1777822231 | 25° C | 27% | 1012.4 hPa | 0 mm | 1.79 m/s, 162° | - | - |
* Rain latest hour (hover to see other rain measurements)
** Current wind speed in m/s (hover to see current wind gust speed)